Time;durP1;ratioP1;P1;durP2;ratioP2;P2;SDS_P1;SDS_P2;PMS_P1;PMS_P2;Temp;Humidity;BMP_temperature;BMP_pressure;BME280_temperature;BME280_humidity;BME280_pressure;Samples;Min_cycle;Max_cycle;Signal;HPM_P1;HPM_P2
2021/07/23 00:00:09;;;;;;;3.73;2.63;;;;;;;13.13;72.14;102043.28;3580881;40;20238;-80
2021/07/23 00:02:40;;;;;;;2.20;2.03;;;;;;;13.12;72.93;102048.38;3581336;40;20304;-79
2021/07/23 00:05:05;;;;;;;4.60;2.80;;;;;;;13.09;72.87;102044.00;3572130;40;20253;-79
2021/07/23 00:07:50;;;;;;;;;;;;;;;;;;;;;
2021/07/23 00:10:18;;;;;;;4.37;3.83;;;;;;;12.98;73.45;102053.09;3582082;40;20230;-79
2021/07/23 00:12:52;;;;;;;3.07;2.77;;;;;;;12.98;73.19;102042.81;3581192;40;20246;-79
2021/07/23 00:15:20;;;;;;;4.10;3.40;;;;;;;12.99;73.47;102046.25;3581704;40;20232;-79
2021/07/23 00:17:55;;;;;;;5.60;4.07;;;;;;;13.00;73.31;102041.16;3581336;40;20599;-79
2021/07/23 00:20:37;;;;;;;7.40;4.10;;;;;;;12.95;73.93;102040.13;3581417;40;20257;-79
2021/07/23 00:23:12;;;;;;;3.60;3.30;;;;;;;12.99;73.68;102043.69;3581098;40;20327;-79
2021/07/23 00:25:43;;;;;;;4.60;4.17;;;;;;;12.95;74.26;102050.41;3588757;40;20630;-79
2021/07/23 00:28:12;;;;;;;5.73;3.57;;;;;;;12.95;74.01;102048.69;3583747;40;20227;-80
2021/07/23 00:30:40;;;;;;;4.87;4.10;;;;;;;13.14;74.17;102044.13;3590981;40;20306;-80
2021/07/23 00:33:10;;;;;;;4.53;3.73;;;;;;;13.29;74.14;102040.28;3591539;40;20326;-79
2021/07/23 00:35:35;;;;;;;4.53;3.33;;;;;;;13.39;73.55;102044.00;3591532;40;20218;-79
2021/07/23 00:38:01;;;;;;;4.03;3.60;;;;;;;13.19;74.25;102042.53;3590628;40;20243;-79
2021/07/23 00:40:26;;;;;;;4.63;3.70;;;;;;;13.08;73.77;102047.38;3581897;40;20504;-80
2021/07/23 00:42:54;;;;;;;3.77;3.00;;;;;;;13.03;73.83;102038.66;3591641;40;20327;-79
2021/07/23 00:45:20;;;;;;;3.13;2.60;;;;;;;12.95;73.72;102045.28;3586960;40;20221;-78
2021/07/23 00:47:49;;;;;;;4.53;3.70;;;;;;;12.84;73.97;102042.38;3586987;40;20240;-80
2021/07/23 00:50:15;;;;;;;5.28;3.35;;;;;;;12.75;74.27;102042.13;3590612;40;20221;-79
2021/07/23 00:52:43;;;;;;;4.90;3.20;;;;;;;12.67;74.24;102043.56;3590222;40;20246;-79
2021/07/23 00:55:09;;;;;;;4.20;3.73;;;;;;;12.64;74.64;102032.34;3581623;40;20221;-79
2021/07/23 00:57:45;;;;;;;5.00;3.80;;;;;;;13.00;73.80;102023.16;3590814;40;20227;-79
2021/07/23 01:00:16;;;;;;;6.00;4.40;;;;;;;13.25;73.42;102028.16;3590844;40;20232;-78
2021/07/23 01:02:48;;;;;;;5.33;4.13;;;;;;;13.66;72.57;102019.84;3581430;40;20642;-79
2021/07/23 01:05:18;;;;;;;5.90;4.20;;;;;;;13.56;73.15;102022.13;3591336;40;20237;-79
2021/07/23 01:07:47;;;;;;;7.93;5.10;;;;;;;13.27;73.75;102034.22;3573379;40;20245;-78
2021/07/23 01:10:15;;;;;;;5.50;3.40;;;;;;;13.08;73.71;102031.09;3571181;40;20647;-79
2021/07/23 01:12:41;;;;;;;5.67;3.90;;;;;;;12.93;73.86;102026.34;3580756;40;20249;-79
2021/07/23 01:15:06;;;;;;;4.23;3.63;;;;;;;12.79;74.29;102025.97;3581164;40;20627;-79
2021/07/23 01:17:32;;;;;;;4.10;3.30;;;;;;;12.80;74.50;102031.94;3580777;40;20289;-79
2021/07/23 01:20:14;;;;;;;6.77;4.70;;;;;;;13.20;73.89;102027.16;3571606;40;20242;-79
2021/07/23 01:22:41;;;;;;;4.57;4.10;;;;;;;13.57;72.65;102021.28;3590249;40;20268;-79
2021/07/23 01:25:07;;;;;;;5.93;5.10;;;;;;;13.42;73.05;102021.78;3590916;40;20302;-79
2021/07/23 01:27:38;;;;;;;4.97;4.10;;;;;;;13.21;74.22;102026.31;3582008;40;20307;-79
2021/07/23 01:30:08;;;;;;;6.03;5.23;;;;;;;13.09;74.65;102026.00;3571392;40;20210;-79
2021/07/23 01:32:34;;;;;;;6.27;5.07;;;;;;;13.13;74.26;102029.53;3574256;40;20230;-79
2021/07/23 01:35:00;;;;;;;5.23;4.30;;;;;;;13.06;75.05;102027.59;3579634;40;20226;-80
2021/07/23 01:37:25;;;;;;;7.07;5.27;;;;;;;13.03;74.80;102024.97;3580289;40;20623;-79
2021/07/23 01:39:53;;;;;;;5.17;4.07;;;;;;;13.03;75.11;102025.81;3571164;40;20222;-79
2021/07/23 01:42:18;;;;;;;6.33;4.43;;;;;;;13.09;75.06;102022.56;3580354;40;20226;-79
2021/07/23 01:44:43;;;;;;;4.50;4.07;;;;;;;13.19;74.77;102022.84;3571487;40;20222;-78
2021/07/23 01:47:09;;;;;;;6.43;4.67;;;;;;;13.59;73.98;102014.50;3573642;40;20217;-79
2021/07/23 01:49:34;;;;;;;4.80;4.40;;;;;;;13.50;74.22;102015.13;3584345;40;20231;-79
2021/07/23 01:51:59;;;;;;;4.90;4.40;;;;;;;13.67;74.08;102010.44;3571076;40;20481;-78
2021/07/23 01:54:24;;;;;;;6.87;5.13;;;;;;;13.55;74.48;102007.53;3570834;40;20261;-78
2021/07/23 01:56:50;;;;;;;5.70;4.87;;;;;;;13.75;74.09;102014.94;3581306;40;20244;-79
2021/07/23 01:59:15;;;;;;;4.63;4.13;;;;;;;13.78;73.56;102008.97;3580916;40;20224;-79
2021/07/23 02:01:40;;;;;;;8.17;4.83;;;;;;;13.81;73.79;102009.91;3590573;40;20241;-79
2021/07/23 02:04:05;;;;;;;6.13;5.30;;;;;;;13.69;73.90;102014.78;3589405;40;20637;-80
2021/07/23 02:06:31;;;;;;;5.77;4.67;;;;;;;13.72;73.99;102014.84;3590578;40;20236;-79
2021/07/23 02:08:56;;;;;;;6.07;4.70;;;;;;;13.86;73.67;102004.91;3590538;40;20225;-80
2021/07/23 02:11:21;;;;;;;7.53;4.40;;;;;;;13.80;73.91;102012.44;3591192;40;20606;-79
2021/07/23 02:13:46;;;;;;;6.50;4.67;;;;;;;14.11;72.01;101999.50;3590801;40;20257;-79
2021/07/23 02:16:12;;;;;;;11.23;5.77;;;;;;;14.30;71.56;102000.00;3590785;40;20239;-79
2021/07/23 02:18:37;;;;;;;7.87;6.17;;;;;;;13.98;72.74;102002.59;3583451;40;20608;-79
2021/07/23 02:21:07;;;;;;;4.03;3.23;;;;;;;13.75;73.88;102002.06;3571303;40;20232;-79
2021/07/23 02:23:32;;;;;;;6.20;3.60;;;;;;;13.66;74.28;102000.94;3584400;40;20288;-79
2021/07/23 02:25:57;;;;;;;7.70;5.53;;;;;;;14.08;73.78;101996.88;3581627;40;20515;-78
2021/07/23 02:28:23;;;;;;;6.60;5.43;;;;;;;14.13;73.17;101993.53;3579897;40;20423;-79
2021/07/23 02:30:48;;;;;;;6.33;5.70;;;;;;;14.01;73.05;102000.13;3579976;40;20221;-79
2021/07/23 02:33:13;;;;;;;5.43;3.97;;;;;;;13.78;74.15;101994.41;3589704;40;20233;-78
2021/07/23 02:35:38;;;;;;;6.50;5.57;;;;;;;13.73;74.28;101995.13;3580344;40;20335;-79
2021/07/23 02:38:04;;;;;;;5.37;4.63;;;;;;;13.69;74.90;101988.16;3589761;40;20217;-79
2021/07/23 02:40:29;;;;;;;6.07;5.20;;;;;;;13.88;74.42;101991.22;3589477;40;20216;-79
2021/07/23 02:42:54;;;;;;;6.27;5.67;;;;;;;13.96;73.90;101991.41;3574207;40;20242;-79
2021/07/23 02:45:19;;;;;;;5.97;4.93;;;;;;;14.03;73.22;101988.13;3570516;40;20233;-79
2021/07/23 02:47:45;;;;;;;8.70;5.90;;;;;;;14.02;73.40;101996.69;3579967;40;20228;-79
2021/07/23 02:50:10;;;;;;;6.43;5.50;;;;;;;14.02;73.38;101996.69;3580893;40;20230;-79
2021/07/23 02:52:36;;;;;;;9.30;5.37;;;;;;;14.02;73.65;101999.28;3586833;40;20256;-79
2021/07/23 02:55:02;;;;;;;7.57;5.33;;;;;;;13.84;74.54;101991.09;3580184;40;20314;-80
2021/07/23 02:57:27;;;;;;;7.67;5.60;;;;;;;13.79;74.70;101997.84;3583450;40;20214;-79
2021/07/23 02:59:53;;;;;;;6.17;4.43;;;;;;;13.75;74.67;101984.03;3570974;40;20214;-79
2021/07/23 03:02:18;;;;;;;5.87;5.23;;;;;;;13.78;74.63;101989.28;3570448;40;20229;-79
2021/07/23 03:04:43;;;;;;;5.53;4.50;;;;;;;13.80;74.75;101994.44;3581174;40;20237;-79
2021/07/23 03:07:08;;;;;;;5.10;4.00;;;;;;;13.82;74.77;101993.66;3576837;40;20228;-78
2021/07/23 03:09:34;;;;;;;5.87;4.03;;;;;;;13.84;74.67;101989.41;3583553;40;20227;-78
2021/07/23 03:11:59;;;;;;;5.83;4.83;;;;;;;13.86;75.24;101986.88;3579389;40;20520;-78
2021/07/23 03:14:24;;;;;;;6.40;5.10;;;;;;;13.84;75.37;101991.09;3579492;40;20253;-79
2021/07/23 03:16:50;;;;;;;7.57;5.20;;;;;;;14.10;74.75;101988.34;3579608;40;20535;-79
2021/07/23 03:19:15;;;;;;;9.03;5.80;;;;;;;14.40;74.28;101977.88;3579411;40;20306;-79
2021/07/23 03:21:40;;;;;;;7.53;5.23;;;;;;;14.36;73.50;101981.25;3576572;40;20522;-79
2021/07/23 03:24:05;;;;;;;8.10;5.83;;;;;;;14.52;73.21;101976.44;3590293;40;20246;-79
2021/07/23 03:26:31;;;;;;;6.50;5.80;;;;;;;14.33;73.85;101989.78;3588262;40;20310;-79
2021/07/23 03:28:56;;;;;;;6.67;5.90;;;;;;;14.35;73.78;101989.78;3587159;40;20225;-79
2021/07/23 03:31:21;;;;;;;6.03;5.27;;;;;;;14.22;74.37;101983.47;3572931;40;20230;-79
2021/07/23 03:33:46;;;;;;;9.17;6.60;;;;;;;14.29;74.78;101981.91;3570631;40;20642;-79
2021/07/23 03:36:12;;;;;;;5.53;4.93;;;;;;;14.15;75.22;101978.13;3581603;40;20237;-79
2021/07/23 03:38:37;;;;;;;5.23;4.73;;;;;;;14.16;75.04;101982.44;3581683;40;20240;-79
2021/07/23 03:41:02;;;;;;;7.07;5.87;;;;;;;14.29;75.11;101980.22;3571848;40;20604;-79
2021/07/23 03:43:27;;;;;;;6.90;4.50;;;;;;;14.23;75.71;101981.78;3581178;40;20268;-79
2021/07/23 03:45:53;;;;;;;5.33;4.53;;;;;;;14.33;75.53;101978.59;3577128;40;20232;-78
2021/07/23 03:48:18;;;;;;;6.93;5.87;;;;;;;14.39;75.62;101970.97;3591492;40;20233;-78
2021/07/23 03:50:45;;;;;;;8.17;6.30;;;;;;;14.65;75.14;101975.00;3588199;40;20234;-78
2021/07/23 03:53:10;;;;;;;7.30;6.50;;;;;;;14.92;74.51;101970.41;3571658;40;20249;-78
2021/07/23 03:55:36;;;;;;;5.53;5.00;;;;;;;14.86;74.42;101975.41;3580392;40;20226;-79
2021/07/23 03:58:03;;;;;;;6.60;5.83;;;;;;;14.64;74.76;101983.56;3571669;40;20225;-78
2021/07/23 04:00:28;;;;;;;8.33;5.73;;;;;;;14.52;75.78;101971.28;3571683;40;20611;-78
2021/07/23 04:02:54;;;;;;;6.30;5.67;;;;;;;14.41;75.96;101982.22;3580853;40;20242;-79
2021/07/23 04:05:19;;;;;;;5.27;4.77;;;;;;;14.35;76.36;101979.47;3581771;40;20916;-78
2021/07/23 04:07:44;;;;;;;5.33;4.83;;;;;;;14.32;76.50;101982.00;3584419;40;20249;-78
2021/07/23 04:10:10;;;;;;;6.27;5.67;;;;;;;14.34;76.98;101982.88;3577407;40;20228;-78
2021/07/23 04:12:35;;;;;;;8.97;6.30;;;;;;;14.62;76.70;101987.81;3581586;40;20235;-78
2021/07/23 04:15:04;;;;;;;8.70;6.70;;;;;;;15.03;75.75;101980.09;3581760;40;20217;-79
2021/07/23 04:17:29;;;;;;;10.27;6.80;;;;;;;15.04;75.91;101983.53;3580482;40;20226;-78
2021/07/23 04:19:54;;;;;;;7.23;6.13;;;;;;;14.80;76.64;101986.50;3576657;40;20318;-79
2021/07/23 04:22:20;;;;;;;6.37;5.20;;;;;;;14.70;77.13;101979.41;3571606;40;20709;-79
2021/07/23 04:24:45;;;;;;;5.87;4.57;;;;;;;14.68;77.42;101978.50;3584709;40;20209;-78
2021/07/23 04:27:13;;;;;;;10.83;7.33;;;;;;;14.94;76.76;101973.88;3585210;40;20230;-78
2021/07/23 04:29:38;;;;;;;9.50;6.53;;;;;;;15.17;76.06;101970.03;3580861;40;20278;-79
2021/07/23 04:32:03;;;;;;;9.90;6.90;;;;;;;15.28;75.01;101971.97;3587478;40;20225;-78
2021/07/23 04:34:28;;;;;;;9.30;6.47;;;;;;;14.98;76.06;101979.13;3585368;40;20263;-78
2021/07/23 04:36:54;;;;;;;7.70;5.63;;;;;;;14.86;76.82;101980.56;3587318;40;20303;-78
2021/07/23 04:39:19;;;;;;;7.37;5.87;;;;;;;14.76;76.82;101983.81;3580767;40;20233;-78
2021/07/23 04:41:44;;;;;;;8.37;6.93;;;;;;;14.81;77.08;101980.50;3580719;40;20218;-78
2021/07/23 04:44:09;;;;;;;6.20;5.50;;;;;;;14.72;77.68;101976.84;3580802;40;20254;-79
2021/07/23 04:46:35;;;;;;;6.43;5.57;;;;;;;14.72;77.88;101977.72;3580295;40;20225;-78
2021/07/23 04:49:00;;;;;;;8.43;6.63;;;;;;;14.78;77.55;101979.56;3580540;40;20218;-79
2021/07/23 04:51:27;;;;;;;10.10;6.03;;;;;;;14.82;76.96;101977.06;3580440;40;20500;-78
2021/07/23 04:53:52;;;;;;;7.43;5.63;;;;;;;14.81;77.49;101972.75;3571582;40;20325;-79
2021/07/23 04:56:17;;;;;;;7.37;5.70;;;;;;;14.83;77.01;101973.66;3581224;40;20480;-78
2021/07/23 04:58:42;;;;;;;9.63;7.23;;;;;;;15.20;76.59;101977.84;3580376;40;20332;-78
2021/07/23 05:01:08;;;;;;;7.37;6.40;;;;;;;15.28;75.68;101973.69;3587932;40;20244;-78
2021/07/23 05:03:38;;;;;;;9.63;7.20;;;;;;;15.17;76.49;101970.91;3571228;40;20246;-79
2021/07/23 05:06:08;;;;;;;7.97;6.00;;;;;;;15.08;76.78;101969.84;3570894;40;20237;-78
2021/07/23 05:08:37;;;;;;;8.13;7.20;;;;;;;15.28;76.03;101971.09;3581254;40;20238;-78
2021/07/23 05:11:07;;;;;;;9.60;7.60;;;;;;;15.36;76.36;101975.59;3580666;40;20673;-80
2021/07/23 05:13:34;;;;;;;6.13;5.30;;;;;;;15.20;76.88;101973.53;3583449;40;20292;-79
2021/07/23 05:15:59;;;;;;;6.47;5.30;;;;;;;15.12;77.06;101974.22;3583313;40;20232;-78
2021/07/23 05:18:27;;;;;;;5.77;5.17;;;;;;;15.09;77.77;101979.31;3590591;40;20241;-79
2021/07/23 05:20:52;;;;;;;10.27;7.33;;;;;;;15.27;77.37;101974.50;3590360;40;20260;-78
2021/07/23 05:23:17;;;;;;;12.60;10.00;;;;;;;15.64;75.82;101977.81;3590656;40;20620;-78
2021/07/23 05:25:43;;;;;;;9.77;8.13;;;;;;;15.47;76.33;101974.06;3590737;40;20228;-77
2021/07/23 05:28:08;;;;;;;17.03;12.27;;;;;;;15.46;76.33;101974.03;3592031;40;20225;-79
2021/07/23 05:30:33;;;;;;;14.67;12.07;;;;;;;15.70;75.80;101971.91;3587331;40;20237;-78
2021/07/23 05:32:59;;;;;;;13.30;9.47;;;;;;;15.62;75.93;101965.72;3573880;40;20230;-78
2021/07/23 05:35:24;;;;;;;12.77;9.87;;;;;;;15.72;75.61;101959.84;3580616;40;20218;-78
2021/07/23 05:37:49;;;;;;;9.43;8.20;;;;;;;15.57;76.07;101968.22;3580653;40;20319;-79
2021/07/23 05:40:16;;;;;;;10.87;7.77;;;;;;;15.46;76.41;101969.75;3580694;40;20650;-80
2021/07/23 05:42:41;;;;;;;7.50;6.70;;;;;;;15.42;76.80;101972.25;3580605;40;20270;-79
2021/07/23 05:45:07;;;;;;;8.77;6.13;;;;;;;15.41;76.81;101973.06;3571534;40;20315;-78
2021/07/23 05:47:32;;;;;;;9.50;8.10;;;;;;;15.46;76.47;101967.16;3580962;40;20221;-79
2021/07/23 05:49:57;;;;;;;10.70;8.87;;;;;;;15.64;76.20;101979.50;3580918;40;20251;-79
2021/07/23 05:52:23;;;;;;;9.27;6.97;;;;;;;15.51;76.59;101968.13;3580934;40;20227;-79
2021/07/23 05:54:48;;;;;;;11.67;8.87;;;;;;;15.72;76.21;101973.66;3579605;40;20242;-78
2021/07/23 05:57:13;;;;;;;9.57;7.63;;;;;;;15.71;76.05;101969.31;3579488;40;20252;-78
2021/07/23 05:59:38;;;;;;;10.70;8.70;;;;;;;15.67;76.03;101970.13;3580879;40;20246;-79
2021/07/23 06:02:04;;;;;;;10.40;7.77;;;;;;;15.70;76.06;101975.31;3580560;40;20229;-79
2021/07/23 06:04:29;;;;;;;12.47;9.40;;;;;;;15.66;76.72;101970.94;3587494;40;20516;-79
2021/07/23 06:06:54;;;;;;;7.03;5.73;;;;;;;15.68;76.76;101970.97;3581262;40;20245;-79
2021/07/23 06:09:20;;;;;;;9.33;6.43;;;;;;;15.70;76.54;101977.06;3576939;40;20233;-79
2021/07/23 06:11:45;;;;;;;11.20;9.00;;;;;;;15.82;75.41;101969.50;3581359;40;20238;-79
2021/07/23 06:14:10;;;;;;;10.67;7.63;;;;;;;15.86;75.33;101967.00;3576482;40;20319;-79
2021/07/23 06:16:39;;;;;;;8.60;7.70;;;;;;;15.94;75.07;101965.38;3581241;40;20229;-78
2021/07/23 06:19:05;;;;;;;10.67;9.50;;;;;;;16.14;73.95;101969.16;3575478;40;20241;-78
2021/07/23 06:21:30;;;;;;;8.33;7.20;;;;;;;16.03;74.91;101978.44;3580162;40;20242;-79
2021/07/23 06:23:55;;;;;;;6.50;5.83;;;;;;;16.01;74.81;101968.94;3584570;40;20221;-79
2021/07/23 06:26:21;;;;;;;7.73;6.73;;;;;;;16.09;74.90;101964.75;3581164;40;20312;-79
2021/07/23 06:28:46;;;;;;;9.00;7.00;;;;;;;16.16;75.24;101966.59;3574638;40;20229;-78
2021/07/23 06:31:14;;;;;;;8.90;7.67;;;;;;;16.19;74.50;101966.63;3575327;40;20689;-79
2021/07/23 06:33:39;;;;;;;12.10;9.20;;;;;;;16.40;73.73;101966.97;3588369;40;20237;-78
2021/07/23 06:36:05;;;;;;;11.67;8.77;;;;;;;16.43;74.05;101967.88;3587621;40;20709;-79
2021/07/23 06:38:30;;;;;;;12.60;8.53;;;;;;;16.50;73.71;101974.00;3584502;40;20688;-78
2021/07/23 06:40:55;;;;;;;9.77;7.43;;;;;;;16.46;73.99;101978.28;3579575;40;20221;-79
2021/07/23 06:43:21;;;;;;;8.10;7.33;;;;;;;16.70;73.04;101972.53;3589084;40;20241;-78
2021/07/23 06:45:53;;;;;;;9.00;6.60;;;;;;;16.59;73.20;101974.13;3586122;40;20221;-78
2021/07/23 06:48:18;;;;;;;7.33;6.63;;;;;;;16.72;73.13;101970.84;3587249;40;20269;-78
2021/07/23 06:50:44;;;;;;;10.53;8.03;;;;;;;16.82;71.76;101972.69;3587572;40;20229;-78
2021/07/23 06:53:09;;;;;;;10.17;6.57;;;;;;;16.77;72.31;101974.38;3580474;40;20507;-79
2021/07/23 06:55:34;;;;;;;9.40;7.23;;;;;;;16.84;72.25;101979.63;3579843;40;20224;-79
2021/07/23 06:58:00;;;;;;;7.37;6.63;;;;;;;16.89;72.34;101975.38;3580059;40;20237;-78
2021/07/23 07:00:25;;;;;;;10.43;8.93;;;;;;;17.06;71.84;101976.44;3570155;40;20230;-78
2021/07/23 07:02:50;;;;;;;8.73;7.00;;;;;;;17.15;71.44;101973.09;3584635;40;20243;-78
2021/07/23 07:05:15;;;;;;;8.77;7.27;;;;;;;17.16;71.06;101973.09;3588085;40;20213;-78
2021/07/23 07:07:41;;;;;;;9.13;7.50;;;;;;;17.13;71.44;101969.63;3588305;40;20245;-78
2021/07/23 07:10:06;;;;;;;10.37;9.27;;;;;;;17.23;70.99;101977.47;3581169;40;20282;-78
2021/07/23 07:12:32;;;;;;;8.27;6.97;;;;;;;17.32;70.88;101976.72;3571858;40;20305;-78
2021/07/23 07:14:57;;;;;;;8.87;7.43;;;;;;;17.38;70.52;101976.78;3572019;40;20234;-78
2021/07/23 07:17:22;;;;;;;11.73;8.13;;;;;;;17.31;71.58;101978.44;3581484;40;20319;-78
2021/07/23 07:19:49;;;;;;;12.43;10.30;;;;;;;17.67;70.65;101977.94;3584195;40;20233;-78
2021/07/23 07:22:16;;;;;;;11.33;8.47;;;;;;;17.63;69.96;101973.59;3581172;40;20237;-78
2021/07/23 07:24:41;;;;;;;10.67;9.03;;;;;;;17.55;69.99;101970.94;3585633;40;20220;-78
2021/07/23 07:27:06;;;;;;;8.87;7.97;;;;;;;17.44;70.85;101976.88;3586973;40;20229;-79
2021/07/23 07:29:32;;;;;;;9.50;7.37;;;;;;;17.51;69.84;101981.25;3580873;40;20237;-78
2021/07/23 07:31:57;;;;;;;6.97;6.27;;;;;;;17.53;69.49;101974.34;3577816;40;20241;-78
2021/07/23 07:34:22;;;;;;;8.53;7.00;;;;;;;17.68;69.54;101974.53;3581742;40;20252;-78
2021/07/23 07:36:47;;;;;;;7.43;6.73;;;;;;;17.71;69.03;101972.81;3577308;40;20284;-78
2021/07/23 07:39:13;;;;;;;7.77;5.50;;;;;;;17.88;68.12;101975.53;3585427;40;20226;-78
2021/07/23 07:41:38;;;;;;;8.13;6.43;;;;;;;18.01;68.12;101979.97;3581312;40;20303;-79
2021/07/23 07:44:05;;;;;;;7.27;6.30;;;;;;;17.97;68.60;101971.28;3571946;40;20241;-78
2021/07/23 07:46:30;;;;;;;8.10;5.67;;;;;;;18.05;68.36;101977.41;3581906;40;20236;-78
2021/07/23 07:48:55;;;;;;;8.23;5.53;;;;;;;18.13;68.43;101977.44;3581162;40;20225;-79
2021/07/23 07:51:20;;;;;;;6.77;5.17;;;;;;;18.18;68.63;101973.16;3581050;40;20230;-78
2021/07/23 07:53:46;;;;;;;7.43;5.90;;;;;;;18.11;68.07;101980.06;3582296;40;20249;-78
2021/07/23 07:56:12;;;;;;;4.73;4.17;;;;;;;18.13;67.96;101977.44;3580964;40;20245;-78
2021/07/23 07:58:38;;;;;;;6.73;5.13;;;;;;;18.28;66.40;101980.16;3581634;40;20535;-78
2021/07/23 08:01:06;;;;;;;5.60;4.30;;;;;;;18.23;66.38;101977.53;3581129;40;20241;-78
2021/07/23 08:03:32;;;;;;;6.83;5.10;;;;;;;18.43;65.32;101969.91;3580790;40;20579;-79
2021/07/23 08:06:02;;;;;;;8.03;4.90;;;;;;;18.34;66.30;101969.84;3581261;40;20250;-79
2021/07/23 08:08:27;;;;;;;6.40;4.40;;;;;;;18.49;65.25;101970.81;3581162;40;20254;-78
2021/07/23 08:10:52;;;;;;;6.90;4.57;;;;;;;18.50;64.85;101967.34;3580778;40;20222;-78
2021/07/23 08:13:17;;;;;;;5.30;4.80;;;;;;;18.69;63.31;101966.56;3580912;40;20249;-78
2021/07/23 08:15:43;;;;;;;5.87;4.77;;;;;;;18.80;61.13;101970.06;3581686;40;20587;-78
2021/07/23 08:18:09;;;;;;;5.80;4.40;;;;;;;18.90;61.52;101961.47;3582106;40;20225;-78
2021/07/23 08:20:34;;;;;;;5.80;4.67;;;;;;;19.10;60.45;101958.91;3591922;40;20232;-78
2021/07/23 08:23:00;;;;;;;7.13;5.03;;;;;;;18.99;61.28;101952.84;3583696;40;20252;-76
2021/07/23 08:25:25;;;;;;;6.63;5.17;;;;;;;19.19;60.19;101948.56;3585732;40;20221;-77
2021/07/23 08:27:50;;;;;;;6.53;4.40;;;;;;;19.37;59.90;101949.50;3580923;40;20233;-79
2021/07/23 08:30:15;;;;;;;5.47;4.23;;;;;;;19.69;59.00;101941.72;3580497;40;20260;-78
2021/07/23 08:32:45;;;;;;;6.17;4.80;;;;;;;19.99;58.28;101946.91;3590928;40;20635;-78
2021/07/23 08:35:10;;;;;;;7.03;4.40;;;;;;;20.11;58.11;101946.91;3590485;40;20222;-78
2021/07/23 08:37:35;;;;;;;5.40;3.80;;;;;;;20.22;58.14;101943.41;3576682;40;20307;-78
2021/07/23 08:40:05;;;;;;;6.40;4.47;;;;;;;20.63;57.19;101946.75;3584394;40;20221;-78
2021/07/23 08:42:31;;;;;;;5.73;4.37;;;;;;;20.98;56.43;101941.41;3573481;40;20545;-78
2021/07/23 08:44:58;;;;;;;6.17;5.07;;;;;;;21.42;56.40;101939.41;3583839;40;20273;-78
2021/07/23 08:47:24;;;;;;;5.27;4.70;;;;;;;21.77;54.45;101937.38;3581252;40;20232;-78
2021/07/23 08:49:50;;;;;;;5.63;4.33;;;;;;;22.04;53.66;101932.78;3580638;40;20226;-78
2021/07/23 08:52:17;;;;;;;4.80;4.03;;;;;;;22.16;51.55;101932.66;3581544;40;20323;-78
2021/07/23 08:54:44;;;;;;;5.43;4.00;;;;;;;22.24;49.89;101927.34;3581526;40;21004;-79
2021/07/23 08:57:09;;;;;;;3.80;3.47;;;;;;;22.00;52.17;101930.22;3580949;40;20214;-78
2021/07/23 08:59:35;;;;;;;4.50;3.63;;;;;;;21.88;52.05;101928.59;3581102;40;20616;-78
2021/07/23 09:02:04;;;;;;;5.00;4.30;;;;;;;21.63;51.75;101923.56;3570147;40;20210;-78
2021/07/23 09:04:37;;;;;;;3.80;3.37;;;;;;;21.36;53.16;101929.88;3587996;40;20248;-78
2021/07/23 09:07:16;;;;;;;4.20;3.20;;;;;;;21.12;53.50;101931.78;3584051;40;20239;-79
2021/07/23 09:09:41;;;;;;;3.23;2.90;;;;;;;20.89;53.27;101931.00;3583282;40;20332;-78
2021/07/23 09:12:27;;;;;;;5.47;3.13;;;;;;;20.80;54.18;101928.44;3578761;40;20253;-77
2021/07/23 09:14:53;;;;;;;3.33;2.67;;;;;;;20.90;53.59;101927.56;3580584;40;20237;-77
2021/07/23 09:17:18;;;;;;;4.13;3.00;;;;;;;20.88;53.94;101932.75;3579936;40;20244;-78
2021/07/23 09:20:01;;;;;;;3.20;2.90;;;;;;;20.90;54.41;101925.81;3575183;40;20229;-77
2021/07/23 09:23:01;;;;;;;5.00;3.60;;;;;;;21.08;53.44;101930.06;3590860;40;20221;-80
2021/07/23 09:25:47;;;;;;;4.03;3.10;;;;;;;21.06;53.04;101930.06;3578414;40;20515;-78
2021/07/23 09:28:26;;;;;;;4.47;2.80;;;;;;;21.12;52.36;101921.34;3580802;40;20229;-78
2021/07/23 09:31:11;;;;;;;3.07;2.77;;;;;;;21.13;52.38;101925.69;3580548;40;20237;-80
2021/07/23 09:33:39;;;;;;;2.97;2.40;;;;;;;21.13;53.74;101918.75;3574199;40;20275;-78
2021/07/23 09:36:09;;;;;;;3.00;2.60;;;;;;;21.18;53.01;101916.97;3580313;40;20244;-82
2021/07/23 09:39:01;;;;;;;3.73;2.70;;;;;;;21.25;52.34;101915.19;3580896;40;20564;-77
2021/07/23 09:41:43;;;;;;;2.27;1.93;;;;;;;21.26;52.34;101914.31;3571135;40;20500;-77
2021/07/23 09:44:15;;;;;;;4.00;2.73;;;;;;;21.27;53.13;101914.31;3571474;40;20249;-78
2021/07/23 09:47:11;;;;;;;;;;;;;;;;;;;;;
2021/07/23 09:49:49;;;;;;;2.40;2.20;;;;;;;21.17;53.38;101912.63;3580748;40;20249;-78
2021/07/23 09:52:27;;;;;;;2.40;2.20;;;;;;;21.19;52.95;101910.88;3570886;40;20229;-78
2021/07/23 09:54:52;;;;;;;2.90;2.60;;;;;;;21.15;52.98;101909.16;3570829;40;20245;-78
2021/07/23 09:57:47;;;;;;;4.30;2.60;;;;;;;21.13;52.73;101912.66;3582834;40;20219;-78
2021/07/23 10:00:22;;;;;;;2.60;2.20;;;;;;;21.01;52.96;101907.53;3580854;40;20232;-79
2021/07/23 10:02:58;;;;;;;5.37;3.80;;;;;;;21.02;54.35;101909.25;3589973;40;20248;-79
2021/07/23 10:06:00;;;;;;;5.57;3.90;;;;;;;20.88;54.68;101911.06;3590733;40;20227;-78
2021/07/23 10:08:34;;;;;;;5.80;4.47;;;;;;;20.84;54.88;101906.72;3573017;40;20326;-79
2021/07/23 10:11:10;;;;;;;5.83;4.60;;;;;;;20.80;55.26;101913.69;3583273;40;20236;-78
2021/07/23 10:13:50;;;;;;;6.53;4.13;;;;;;;20.67;55.67;101912.03;3577048;40;20237;-78
2021/07/23 10:16:39;;;;;;;7.33;4.77;;;;;;;20.66;55.72;101919.84;3587954;40;20233;-78
2021/07/23 10:19:09;;;;;;;5.40;3.90;;;;;;;20.59;55.60;101911.19;3578420;40;20229;-78
2021/07/23 10:21:34;;;;;;;5.07;4.43;;;;;;;20.55;55.99;101917.28;3581395;40;20584;-78
2021/07/23 10:24:31;;;;;;;4.90;3.43;;;;;;;20.56;56.69;101911.22;3581227;40;20249;-78
2021/07/23 10:27:08;;;;;;;6.13;3.50;;;;;;;20.56;55.85;101913.81;3581187;40;20237;-78
2021/07/23 10:30:03;;;;;;;4.50;3.60;;;;;;;20.52;56.36;101909.50;3581457;40;20350;-78
2021/07/23 10:32:35;;;;;;;5.10;3.77;;;;;;;20.57;55.16;101906.84;3581777;40;20252;-78
2021/07/23 10:36:03;;;;;;;4.37;3.60;;;;;;;20.55;54.95;101904.25;3581515;40;20237;-80
2021/07/23 10:38:40;;;;;;;4.47;3.50;;;;;;;20.53;54.36;101900.81;3580826;40;20234;-78
2021/07/23 10:41:12;;;;;;;3.80;3.40;;;;;;;20.57;54.29;101904.25;3575055;40;20218;-80
2021/07/23 10:43:46;;;;;;;4.93;3.30;;;;;;;20.54;53.92;101897.31;3572338;40;20257;-81
2021/07/23 10:46:19;;;;;;;3.83;3.30;;;;;;;20.54;54.65;101892.13;3582009;40;20265;-78
2021/07/23 10:48:52;;;;;;;4.60;3.20;;;;;;;20.63;54.88;101891.22;3572427;40;20306;-78
2021/07/23 10:51:49;;;;;;;3.57;3.03;;;;;;;20.70;54.42;101890.31;3572870;40;20260;-77
2021/07/23 10:54:19;;;;;;;3.77;3.40;;;;;;;20.76;54.64;101890.28;3572509;40;20256;-77
2021/07/23 10:57:12;;;;;;;3.80;3.40;;;;;;;20.82;54.98;101893.72;3576591;40;20236;-78
2021/07/23 10:59:43;;;;;;;8.67;3.00;;;;;;;20.88;54.72;101891.09;3582734;40;20527;-78
2021/07/23 11:02:14;;;;;;;5.13;3.35;;;;;;;20.99;55.03;101891.03;3583062;40;20229;-78
2021/07/23 11:04:41;;;;;;;3.47;2.90;;;;;;;21.21;54.24;101893.50;3582082;40;20611;-78
2021/07/23 11:07:08;;;;;;;3.97;3.08;;;;;;;21.24;54.20;101895.22;3582079;40;20228;-78
2021/07/23 11:09:42;;;;;;;3.30;2.87;;;;;;;21.40;54.25;101886.41;3592027;40;20237;-78
2021/07/23 11:12:22;;;;;;;5.50;3.58;;;;;;;21.59;52.36;101888.84;3582583;40;20229;-77
2021/07/23 11:14:54;;;;;;;3.73;3.37;;;;;;;21.70;51.88;101886.19;3581729;40;20232;-77
2021/07/23 11:17:20;;;;;;;4.17;3.80;;;;;;;21.76;52.04;101883.50;3580696;40;20278;-78
2021/07/23 11:19:46;;;;;;;3.90;3.30;;;;;;;21.98;52.00;101892.84;3572768;40;20229;-78
2021/07/23 11:22:19;;;;;;;3.80;3.30;;;;;;;21.96;50.43;101885.03;3571259;40;20637;-77
2021/07/23 11:24:45;;;;;;;4.73;3.53;;;;;;;22.12;50.87;101877.91;3581946;40;20274;-77
2021/07/23 11:27:11;;;;;;;3.72;3.35;;;;;;;22.19;50.84;101874.34;3581682;40;20229;-78
2021/07/23 11:29:39;;;;;;;4.77;3.73;;;;;;;22.23;50.63;101882.13;3581680;40;20673;-76
2021/07/23 11:32:08;;;;;;;4.40;3.53;;;;;;;22.26;51.10;101870.78;3572206;40;20284;-77